Аэропорт
Магнитогорск (USCM)

 USCM / MQF
ЗЦ Екатеринбург
Екатеринбург (USSS)
Челябинск (USCC)
 53.39310, 58.75570  / 1430 ft

 USCM 220700Z 36002MPS 6000 -SN OVC026 M04/M06 Q1025 R36/090060 TEMPO 1500 SN VV005 RMK QFE730
 TAF USCM 220200Z 2203/2212 30003G08MPS 5000 BR NSC TEMPO 2203/2206 12003MPS 0300 FZFG VV011
показать схемы
Название сценария Тип сценария Flight Simulator 9 Flight Simulator X Prepar3D v2 Prepar3D v3 Prepar3D v4 xPlane
Магнитогорск бесплатный


2020 © VATRUS division (Privacy Policy)